»·PEaware :: COBRA14 KGEG-KSEA

COBRA14 :: KGEG-KSEA

FLIGHT INFORMATION

Flight Status: Arrived
Operator: Unknown
More flights by this operator :: More flights under this callsign
Pilot: Tyler K. (22236)
Aircraft: BEECH AIRCRAFT T-6A TEXAN
(TEX2)
More flights by this aircraft type
Origin: KGEG Spokane Intl
United States
Destination: KSEA Seattle-Tacoma Intl
United States
More flights between these airports :: More routes between these airports
Route: +GEG6 EPH EPH8
File this flight plan on PilotEdge
Remarks: Rqst Spokane Six departure to EPH
Altitude:
(Current/Filed)
16,000ft
Speed:
(Current/Filed)
254kts
Departed: 09-Nov-20 10:07 AM
Arrived: 09-Nov-20 10:58 AM
Distance/Time
Traveled:
194nm/0:51
Distance/Time
To Go:
Arrived

Flight Plot

Page will automatically refresh every two minutes.

Flight plan parsing failed; only flown route is shown


Map Options




Map Legend


Flown Route
Filed Route
Departure Airport
Arrival Airport
Navaid (VOR, NDB)
Fix

Horizontal Profiles

Position Reports

Time Latitude Longitude Heading Altitude Ground
Speed
09-Nov-20 09:55 47.620428 -117.528554 359 2359ft 0kts
09-Nov-20 09:56 47.620428 -117.528554 359 2359ft 0kts
09-Nov-20 09:57 47.620428 -117.528554 359 2359ft 0kts
09-Nov-20 09:58 47.620428 -117.528554 359 2359ft 0kts
09-Nov-20 09:59 47.620428 -117.528554 359 2359ft 0kts
09-Nov-20 10:00 47.620428 -117.528554 359 2359ft 0kts
09-Nov-20 10:01 47.622383 -117.528071 45 2355ft 11kts
09-Nov-20 10:02 47.625214 -117.523826 44 2347ft 20kts
09-Nov-20 10:03 47.628948 -117.518211 45 2331ft 18kts
09-Nov-20 10:04 47.630531 -117.517483 314 2323ft 0kts
09-Nov-20 10:05 47.630531 -117.517482 314 2323ft 0kts
09-Nov-20 10:06 47.630479 -117.519365 224 2328ft 43kts
09-Nov-20 10:07 47.603337 -117.559207 225 3981ft 175kts
09-Nov-20 10:08 47.564259 -117.615075 224 6813ft 194kts
09-Nov-20 10:09 47.523145 -117.671064 223 10120ft 200kts
09-Nov-20 10:10 47.502898 -117.749511 255 13549ft 200kts
09-Nov-20 10:11 47.486881 -117.837124 255 15846ft 246kts
09-Nov-20 10:12 47.471100 -117.954130 261 15701ft 286kts
09-Nov-20 10:13 47.461201 -118.073274 266 15604ft 273kts
09-Nov-20 10:14 47.454881 -118.188753 265 15698ft 268kts
09-Nov-20 10:15 47.451419 -118.303915 271 15714ft 267kts
09-Nov-20 10:16 47.449401 -118.419153 267 15688ft 267kts
09-Nov-20 10:17 47.443173 -118.534002 265 15703ft 266kts
09-Nov-20 10:18 47.436210 -118.648284 264 15724ft 266kts
09-Nov-20 10:19 47.427170 -118.762603 263 15695ft 266kts
09-Nov-20 10:20 47.418425 -118.876691 264 15711ft 266kts
09-Nov-20 10:21 47.411150 -118.990558 265 15710ft 263kts
09-Nov-20 10:22 47.404466 -119.104588 265 15677ft 266kts
09-Nov-20 10:23 47.391498 -119.217548 259 15587ft 270kts
09-Nov-20 10:24 47.382209 -119.331769 267 15718ft 266kts
09-Nov-20 10:25 47.376096 -119.445647 271 15796ft 265kts
09-Nov-20 10:26 47.404872 -119.551141 285 15694ft 271kts
09-Nov-20 10:27 47.422261 -119.663878 284 15645ft 270kts
09-Nov-20 10:28 47.445324 -119.775467 287 15648ft 265kts
09-Nov-20 10:29 47.466805 -119.885695 285 15687ft 267kts
09-Nov-20 10:30 47.485943 -119.997484 284 15665ft 268kts
09-Nov-20 10:31 47.508028 -120.108463 287 15681ft 266kts
09-Nov-20 10:32 47.532543 -120.217766 286 15712ft 267kts
09-Nov-20 10:33 47.554745 -120.328488 286 15648ft 268kts
09-Nov-20 10:34 47.576848 -120.439304 287 15658ft 268kts
09-Nov-20 10:35 47.599488 -120.555427 286 15624ft 295kts
09-Nov-20 10:36 47.620609 -120.680315 282 15651ft 299kts
09-Nov-20 10:37 47.641694 -120.805695 285 15678ft 299kts
09-Nov-20 10:38 47.665457 -120.930806 285 15650ft 299kts
09-Nov-20 10:39 47.687056 -121.056103 284 15756ft 298kts
09-Nov-20 10:40 47.708602 -121.182008 283 15662ft 300kts
09-Nov-20 10:41 47.731240 -121.307290 286 15796ft 298kts
09-Nov-20 10:42 47.757253 -121.431879 286 15619ft 300kts
09-Nov-20 10:43 47.781300 -121.559206 287 14308ft 315kts
09-Nov-20 10:44 47.808577 -121.686085 286 10937ft 305kts
09-Nov-20 10:45 47.819007 -121.804580 247 9624ft 269kts
09-Nov-20 10:47 47.772506 -121.891554 261 8847ft 272kts
09-Nov-20 10:48 47.765478 -122.008074 265 5773ft 266kts
09-Nov-20 10:49 47.759546 -122.118550 266 2751ft 245kts
09-Nov-20 10:50 47.754753 -122.213957 266 2646ft 204kts
09-Nov-20 10:51 47.734036 -122.288472 204 2749ft 197kts
09-Nov-20 10:52 47.677660 -122.306524 177 2812ft 197kts
09-Nov-20 10:53 47.620161 -122.305387 182 2709ft 197kts
09-Nov-20 10:54 47.568355 -122.306601 179 2549ft 142kts
09-Nov-20 10:55 47.531091 -122.306338 180 1789ft 122kts
09-Nov-20 10:56 47.496184 -122.307173 180 1115ft 116kts
09-Nov-20 10:57 47.462182 -122.307741 180 451ft 112kts
09-Nov-20 10:58 47.445587 -122.307923 177 391ft 28kts
09-Nov-20 10:59 47.439060 -122.308226 284 368ft 9kts
09-Nov-20 11:00 47.439574 -122.309232 328 369ft 0kts
09-Nov-20 11:01 47.439890 -122.309539 330 369ft 9kts
09-Nov-20 11:02 47.442349 -122.313429 286 367ft 0kts
09-Nov-20 11:03 47.442349 -122.313429 286 367ft 0kts
09-Nov-20 11:04 47.440501 -122.313610 180 365ft 0kts
09-Nov-20 11:04 47.440501 -122.313610 180 365ft 0kts
09-Nov-20 11:06 47.438197 -122.315240 0 357ft 0kts
09-Nov-20 11:06 47.438197 -122.315240 0 357ft 0kts

Navigation Log

Ident Type
Flight plan parsing failed, navigation log unavailable